sensor_id;sensor_type;location;lat;lon;timestamp;P1;durP1;ratioP1;P2;durP2;ratioP2
9445;SDS011;4761;49.490;10.908;2024-01-15T00:02:16;22.57;;;16.50;;
9445;SDS011;4761;49.490;10.908;2024-01-15T00:04:42;23.40;;;15.67;;
9445;SDS011;4761;49.490;10.908;2024-01-15T00:07:08;21.33;;;16.40;;
9445;SDS011;4761;49.490;10.908;2024-01-15T00:09:34;21.50;;;16.20;;
9445;SDS011;4761;49.490;10.908;2024-01-15T00:12:00;21.57;;;16.20;;
9445;SDS011;4761;49.490;10.908;2024-01-15T00:14:26;20.53;;;15.60;;
9445;SDS011;4761;49.490;10.908;2024-01-15T00:16:52;22.83;;;16.63;;
9445;SDS011;4761;49.490;10.908;2024-01-15T00:19:20;20.10;;;15.70;;
9445;SDS011;4761;49.490;10.908;2024-01-15T00:21:46;19.53;;;15.73;;
9445;SDS011;4761;49.490;10.908;2024-01-15T00:24:12;20.03;;;15.13;;
9445;SDS011;4761;49.490;10.908;2024-01-15T00:26:37;21.17;;;16.00;;
9445;SDS011;4761;49.490;10.908;2024-01-15T00:29:03;22.30;;;16.33;;
9445;SDS011;4761;49.490;10.908;2024-01-15T00:31:29;21.23;;;16.60;;
9445;SDS011;4761;49.490;10.908;2024-01-15T00:33:55;24.07;;;17.70;;
9445;SDS011;4761;49.490;10.908;2024-01-15T00:36:20;21.03;;;15.77;;
9445;SDS011;4761;49.490;10.908;2024-01-15T00:38:46;21.67;;;16.80;;
9445;SDS011;4761;49.490;10.908;2024-01-15T00:41:12;21.27;;;16.27;;
9445;SDS011;4761;49.490;10.908;2024-01-15T00:43:38;19.57;;;16.03;;
9445;SDS011;4761;49.490;10.908;2024-01-15T00:46:04;20.97;;;15.77;;
9445;SDS011;4761;49.490;10.908;2024-01-15T00:48:30;22.47;;;16.90;;
9445;SDS011;4761;49.490;10.908;2024-01-15T00:50:55;21.27;;;15.90;;
9445;SDS011;4761;49.490;10.908;2024-01-15T00:53:21;21.90;;;16.70;;
9445;SDS011;4761;49.490;10.908;2024-01-15T00:55:49;19.97;;;16.47;;
9445;SDS011;4761;49.490;10.908;2024-01-15T00:58:15;21.40;;;16.67;;
9445;SDS011;4761;49.490;10.908;2024-01-15T01:00:41;22.23;;;17.03;;
9445;SDS011;4761;49.490;10.908;2024-01-15T01:03:06;22.37;;;17.67;;
9445;SDS011;4761;49.490;10.908;2024-01-15T01:05:33;20.60;;;16.13;;
9445;SDS011;4761;49.490;10.908;2024-01-15T01:07:59;20.83;;;16.23;;
9445;SDS011;4761;49.490;10.908;2024-01-15T01:10:25;21.47;;;16.23;;
9445;SDS011;4761;49.490;10.908;2024-01-15T01:12:50;20.53;;;16.07;;
9445;SDS011;4761;49.490;10.908;2024-01-15T01:15:16;20.70;;;16.60;;
9445;SDS011;4761;49.490;10.908;2024-01-15T01:17:41;20.97;;;15.90;;
9445;SDS011;4761;49.490;10.908;2024-01-15T01:20:07;20.30;;;15.30;;
9445;SDS011;4761;49.490;10.908;2024-01-15T01:22:34;20.80;;;16.60;;
9445;SDS011;4761;49.490;10.908;2024-01-15T01:24:59;20.23;;;16.30;;
9445;SDS011;4761;49.490;10.908;2024-01-15T01:27:25;20.30;;;16.30;;
9445;SDS011;4761;49.490;10.908;2024-01-15T01:29:50;20.33;;;15.87;;
9445;SDS011;4761;49.490;10.908;2024-01-15T01:32:16;21.23;;;16.63;;
9445;SDS011;4761;49.490;10.908;2024-01-15T01:34:42;19.03;;;15.77;;
9445;SDS011;4761;49.490;10.908;2024-01-15T01:37:08;21.37;;;16.00;;
9445;SDS011;4761;49.490;10.908;2024-01-15T01:39:34;20.73;;;16.43;;
9445;SDS011;4761;49.490;10.908;2024-01-15T01:42:00;20.47;;;16.53;;
9445;SDS011;4761;49.490;10.908;2024-01-15T01:44:25;21.13;;;15.73;;
9445;SDS011;4761;49.490;10.908;2024-01-15T01:46:51;19.07;;;15.80;;
9445;SDS011;4761;49.490;10.908;2024-01-15T01:49:17;19.97;;;15.97;;
9445;SDS011;4761;49.490;10.908;2024-01-15T01:51:43;21.87;;;17.27;;
9445;SDS011;4761;49.490;10.908;2024-01-15T01:54:09;19.90;;;15.90;;
9445;SDS011;4761;49.490;10.908;2024-01-15T01:56:37;19.47;;;15.87;;
9445;SDS011;4761;49.490;10.908;2024-01-15T01:59:03;21.10;;;16.20;;
9445;SDS011;4761;49.490;10.908;2024-01-15T02:01:30;19.87;;;15.97;;
9445;SDS011;4761;49.490;10.908;2024-01-15T02:03:56;20.93;;;16.33;;
9445;SDS011;4761;49.490;10.908;2024-01-15T02:06:23;20.80;;;16.13;;
9445;SDS011;4761;49.490;10.908;2024-01-15T02:08:49;20.97;;;16.40;;
9445;SDS011;4761;49.490;10.908;2024-01-15T02:11:15;21.38;;;17.15;;
9445;SDS011;4761;49.490;10.908;2024-01-15T02:13:41;21.30;;;15.90;;
9445;SDS011;4761;49.490;10.908;2024-01-15T02:16:06;18.33;;;15.00;;
9445;SDS011;4761;49.490;10.908;2024-01-15T02:19:06;18.90;;;15.07;;
9445;SDS011;4761;49.490;10.908;2024-01-15T02:21:24;19.60;;;15.80;;
9445;SDS011;4761;49.490;10.908;2024-01-15T02:23:51;18.47;;;14.97;;
9445;SDS011;4761;49.490;10.908;2024-01-15T02:26:17;20.27;;;14.87;;
9445;SDS011;4761;49.490;10.908;2024-01-15T02:28:42;17.83;;;14.13;;
9445;SDS011;4761;49.490;10.908;2024-01-15T02:31:09;17.83;;;14.47;;
9445;SDS011;4761;49.490;10.908;2024-01-15T02:33:35;18.80;;;14.87;;
9445;SDS011;4761;49.490;10.908;2024-01-15T02:36:00;18.93;;;15.37;;
9445;SDS011;4761;49.490;10.908;2024-01-15T02:38:32;19.17;;;15.03;;
9445;SDS011;4761;49.490;10.908;2024-01-15T02:40:58;19.37;;;14.67;;
9445;SDS011;4761;49.490;10.908;2024-01-15T02:43:23;18.90;;;14.43;;
9445;SDS011;4761;49.490;10.908;2024-01-15T02:45:49;17.50;;;14.30;;
9445;SDS011;4761;49.490;10.908;2024-01-15T02:48:14;15.93;;;13.20;;
9445;SDS011;4761;49.490;10.908;2024-01-15T02:50:40;16.27;;;13.03;;
9445;SDS011;4761;49.490;10.908;2024-01-15T02:53:05;18.17;;;14.20;;
9445;SDS011;4761;49.490;10.908;2024-01-15T02:55:31;17.10;;;13.43;;
9445;SDS011;4761;49.490;10.908;2024-01-15T02:57:57;15.80;;;12.67;;
9445;SDS011;4761;49.490;10.908;2024-01-15T03:00:22;16.37;;;13.03;;
9445;SDS011;4761;49.490;10.908;2024-01-15T03:02:49;18.20;;;13.60;;
9445;SDS011;4761;49.490;10.908;2024-01-15T03:05:15;16.57;;;12.30;;
9445;SDS011;4761;49.490;10.908;2024-01-15T03:07:41;16.53;;;13.03;;
9445;SDS011;4761;49.490;10.908;2024-01-15T03:10:07;15.07;;;11.73;;
9445;SDS011;4761;49.490;10.908;2024-01-15T03:12:33;13.97;;;11.50;;
9445;SDS011;4761;49.490;10.908;2024-01-15T03:14:58;15.77;;;11.93;;
9445;SDS011;4761;49.490;10.908;2024-01-15T03:17:24;14.77;;;11.87;;
9445;SDS011;4761;49.490;10.908;2024-01-15T03:19:50;15.03;;;11.63;;
9445;SDS011;4761;49.490;10.908;2024-01-15T03:22:16;13.63;;;11.27;;
9445;SDS011;4761;49.490;10.908;2024-01-15T03:24:41;14.10;;;11.23;;
9445;SDS011;4761;49.490;10.908;2024-01-15T03:27:07;14.47;;;12.00;;
9445;SDS011;4761;49.490;10.908;2024-01-15T03:29:32;14.63;;;11.97;;
9445;SDS011;4761;49.490;10.908;2024-01-15T03:31:58;13.27;;;10.87;;
9445;SDS011;4761;49.490;10.908;2024-01-15T03:34:24;13.97;;;11.13;;
9445;SDS011;4761;49.490;10.908;2024-01-15T03:36:49;14.07;;;11.27;;
9445;SDS011;4761;49.490;10.908;2024-01-15T03:39:15;12.67;;;10.30;;
9445;SDS011;4761;49.490;10.908;2024-01-15T03:41:40;13.13;;;10.50;;
9445;SDS011;4761;49.490;10.908;2024-01-15T03:44:06;12.10;;;10.33;;
9445;SDS011;4761;49.490;10.908;2024-01-15T03:46:31;13.10;;;10.40;;
9445;SDS011;4761;49.490;10.908;2024-01-15T03:48:57;12.83;;;10.10;;
9445;SDS011;4761;49.490;10.908;2024-01-15T03:51:22;11.70;;;10.20;;
9445;SDS011;4761;49.490;10.908;2024-01-15T03:53:48;14.17;;;9.90;;
9445;SDS011;4761;49.490;10.908;2024-01-15T03:56:14;12.13;;;9.90;;
9445;SDS011;4761;49.490;10.908;2024-01-15T03:58:39;11.57;;;9.57;;
9445;SDS011;4761;49.490;10.908;2024-01-15T04:01:11;13.63;;;10.47;;
9445;SDS011;4761;49.490;10.908;2024-01-15T04:03:37;11.80;;;9.70;;
9445;SDS011;4761;49.490;10.908;2024-01-15T04:06:03;13.23;;;9.70;;
9445;SDS011;4761;49.490;10.908;2024-01-15T04:08:28;12.00;;;10.20;;
9445;SDS011;4761;49.490;10.908;2024-01-15T04:10:54;12.27;;;9.93;;
9445;SDS011;4761;49.490;10.908;2024-01-15T04:13:20;11.30;;;9.67;;
9445;SDS011;4761;49.490;10.908;2024-01-15T04:15:45;11.47;;;9.43;;
9445;SDS011;4761;49.490;10.908;2024-01-15T04:18:11;11.47;;;9.03;;
9445;SDS011;4761;49.490;10.908;2024-01-15T04:20:36;11.53;;;9.57;;
9445;SDS011;4761;49.490;10.908;2024-01-15T04:23:02;11.35;;;9.85;;
9445;SDS011;4761;49.490;10.908;2024-01-15T04:25:28;11.03;;;9.20;;
9445;SDS011;4761;49.490;10.908;2024-01-15T04:27:53;11.07;;;8.97;;
9445;SDS011;4761;49.490;10.908;2024-01-15T04:30:19;11.13;;;9.30;;
9445;SDS011;4761;49.490;10.908;2024-01-15T04:32:44;11.03;;;8.70;;
9445;SDS011;4761;49.490;10.908;2024-01-15T04:35:10;10.57;;;8.90;;
9445;SDS011;4761;49.490;10.908;2024-01-15T04:37:35;11.57;;;9.70;;
9445;SDS011;4761;49.490;10.908;2024-01-15T04:40:02;11.60;;;9.57;;
9445;SDS011;4761;49.490;10.908;2024-01-15T04:42:28;13.47;;;10.10;;
9445;SDS011;4761;49.490;10.908;2024-01-15T04:44:54;11.00;;;8.90;;
9445;SDS011;4761;49.490;10.908;2024-01-15T04:47:19;11.23;;;9.20;;
9445;SDS011;4761;49.490;10.908;2024-01-15T04:49:45;12.40;;;10.10;;
9445;SDS011;4761;49.490;10.908;2024-01-15T04:52:10;11.20;;;9.07;;
9445;SDS011;4761;49.490;10.908;2024-01-15T04:54:37;11.73;;;9.00;;
9445;SDS011;4761;49.490;10.908;2024-01-15T04:57:03;11.43;;;9.30;;
9445;SDS011;4761;49.490;10.908;2024-01-15T04:59:28;11.33;;;9.30;;
9445;SDS011;4761;49.490;10.908;2024-01-15T05:01:54;11.33;;;9.30;;
9445;SDS011;4761;49.490;10.908;2024-01-15T05:04:20;11.27;;;9.17;;
9445;SDS011;4761;49.490;10.908;2024-01-15T05:06:46;11.43;;;9.37;;
9445;SDS011;4761;49.490;10.908;2024-01-15T05:09:11;11.10;;;8.87;;
9445;SDS011;4761;49.490;10.908;2024-01-15T05:11:38;13.07;;;9.63;;
9445;SDS011;4761;49.490;10.908;2024-01-15T05:14:04;11.17;;;9.07;;
9445;SDS011;4761;49.490;10.908;2024-01-15T05:16:29;11.27;;;9.27;;
9445;SDS011;4761;49.490;10.908;2024-01-15T05:18:55;10.63;;;9.07;;
9445;SDS011;4761;49.490;10.908;2024-01-15T05:21:21;12.00;;;9.37;;
9445;SDS011;4761;49.490;10.908;2024-01-15T05:23:46;12.73;;;9.57;;
9445;SDS011;4761;49.490;10.908;2024-01-15T05:26:12;12.83;;;10.03;;
9445;SDS011;4761;49.490;10.908;2024-01-15T05:28:37;10.83;;;9.00;;
9445;SDS011;4761;49.490;10.908;2024-01-15T05:31:03;11.67;;;9.53;;
9445;SDS011;4761;49.490;10.908;2024-01-15T05:33:29;11.23;;;8.93;;
9445;SDS011;4761;49.490;10.908;2024-01-15T05:35:54;10.90;;;8.87;;
9445;SDS011;4761;49.490;10.908;2024-01-15T05:38:20;10.50;;;8.70;;
9445;SDS011;4761;49.490;10.908;2024-01-15T05:40:46;10.73;;;8.63;;
9445;SDS011;4761;49.490;10.908;2024-01-15T05:43:11;10.77;;;8.60;;
9445;SDS011;4761;49.490;10.908;2024-01-15T05:45:38;10.97;;;8.83;;
9445;SDS011;4761;49.490;10.908;2024-01-15T05:48:04;11.23;;;8.40;;
9445;SDS011;4761;49.490;10.908;2024-01-15T05:50:30;10.80;;;8.60;;
9445;SDS011;4761;49.490;10.908;2024-01-15T05:52:55;11.60;;;8.90;;
9445;SDS011;4761;49.490;10.908;2024-01-15T05:55:21;9.90;;;8.13;;
9445;SDS011;4761;49.490;10.908;2024-01-15T05:57:46;9.13;;;8.07;;
9445;SDS011;4761;49.490;10.908;2024-01-15T06:00:12;9.53;;;7.70;;
9445;SDS011;4761;49.490;10.908;2024-01-15T06:02:38;10.33;;;8.73;;
9445;SDS011;4761;49.490;10.908;2024-01-15T06:05:04;10.47;;;8.20;;
9445;SDS011;4761;49.490;10.908;2024-01-15T06:07:31;10.32;;;8.00;;
9445;SDS011;4761;49.490;10.908;2024-01-15T06:09:57;9.93;;;7.90;;
9445;SDS011;4761;49.490;10.908;2024-01-15T06:12:22;9.00;;;7.47;;
9445;SDS011;4761;49.490;10.908;2024-01-15T06:14:48;9.07;;;7.70;;
9445;SDS011;4761;49.490;10.908;2024-01-15T06:17:14;9.07;;;7.83;;
9445;SDS011;4761;49.490;10.908;2024-01-15T06:19:39;9.03;;;7.63;;
9445;SDS011;4761;49.490;10.908;2024-01-15T06:22:05;8.97;;;7.83;;
9445;SDS011;4761;49.490;10.908;2024-01-15T06:24:30;9.30;;;7.27;;
9445;SDS011;4761;49.490;10.908;2024-01-15T06:26:56;10.73;;;7.90;;
9445;SDS011;4761;49.490;10.908;2024-01-15T06:29:21;9.73;;;7.53;;
9445;SDS011;4761;49.490;10.908;2024-01-15T06:31:49;8.97;;;7.07;;
9445;SDS011;4761;49.490;10.908;2024-01-15T06:34:14;8.60;;;7.37;;
9445;SDS011;4761;49.490;10.908;2024-01-15T06:36:40;8.23;;;7.20;;
9445;SDS011;4761;49.490;10.908;2024-01-15T06:39:06;9.23;;;7.67;;
9445;SDS011;4761;49.490;10.908;2024-01-15T06:41:31;9.53;;;8.03;;
9445;SDS011;4761;49.490;10.908;2024-01-15T06:43:57;8.67;;;7.30;;
9445;SDS011;4761;49.490;10.908;2024-01-15T06:46:23;7.57;;;6.77;;
9445;SDS011;4761;49.490;10.908;2024-01-15T06:48:48;9.50;;;7.23;;
9445;SDS011;4761;49.490;10.908;2024-01-15T06:51:15;8.30;;;7.17;;
9445;SDS011;4761;49.490;10.908;2024-01-15T06:53:41;8.83;;;7.50;;
9445;SDS011;4761;49.490;10.908;2024-01-15T06:56:06;9.17;;;7.20;;
9445;SDS011;4761;49.490;10.908;2024-01-15T06:58:32;9.68;;;7.35;;
9445;SDS011;4761;49.490;10.908;2024-01-15T07:00:58;10.07;;;7.87;;
9445;SDS011;4761;49.490;10.908;2024-01-15T07:03:24;8.83;;;7.47;;
9445;SDS011;4761;49.490;10.908;2024-01-15T07:05:50;7.47;;;6.57;;
9445;SDS011;4761;49.490;10.908;2024-01-15T07:08:15;7.90;;;6.73;;
9445;SDS011;4761;49.490;10.908;2024-01-15T07:10:41;9.03;;;7.43;;
9445;SDS011;4761;49.490;10.908;2024-01-15T07:13:06;7.67;;;6.60;;
9445;SDS011;4761;49.490;10.908;2024-01-15T07:15:32;8.63;;;7.13;;
9445;SDS011;4761;49.490;10.908;2024-01-15T07:17:57;7.03;;;6.33;;
9445;SDS011;4761;49.490;10.908;2024-01-15T07:20:23;7.17;;;6.40;;
9445;SDS011;4761;49.490;10.908;2024-01-15T07:22:48;8.45;;;6.78;;
9445;SDS011;4761;49.490;10.908;2024-01-15T07:25:15;7.87;;;6.63;;
9445;SDS011;4761;49.490;10.908;2024-01-15T07:27:41;7.80;;;6.23;;
9445;SDS011;4761;49.490;10.908;2024-01-15T07:30:09;6.77;;;6.07;;
9445;SDS011;4761;49.490;10.908;2024-01-15T07:32:36;8.23;;;6.60;;
9445;SDS011;4761;49.490;10.908;2024-01-15T07:35:02;8.57;;;7.10;;
9445;SDS011;4761;49.490;10.908;2024-01-15T07:37:28;9.07;;;6.87;;
9445;SDS011;4761;49.490;10.908;2024-01-15T07:39:53;6.90;;;5.80;;
9445;SDS011;4761;49.490;10.908;2024-01-15T07:42:19;8.10;;;6.57;;
9445;SDS011;4761;49.490;10.908;2024-01-15T07:44:44;7.73;;;6.50;;
9445;SDS011;4761;49.490;10.908;2024-01-15T07:47:10;8.50;;;6.83;;
9445;SDS011;4761;49.490;10.908;2024-01-15T07:49:35;7.53;;;6.50;;
9445;SDS011;4761;49.490;10.908;2024-01-15T07:52:01;9.27;;;6.03;;
9445;SDS011;4761;49.490;10.908;2024-01-15T07:54:27;6.83;;;5.93;;
9445;SDS011;4761;49.490;10.908;2024-01-15T07:57:02;8.33;;;6.47;;
9445;SDS011;4761;49.490;10.908;2024-01-15T07:59:31;7.70;;;6.70;;
9445;SDS011;4761;49.490;10.908;2024-01-15T08:01:57;8.38;;;6.32;;
9445;SDS011;4761;49.490;10.908;2024-01-15T08:04:24;7.53;;;6.30;;
9445;SDS011;4761;49.490;10.908;2024-01-15T08:06:49;6.70;;;5.97;;
9445;SDS011;4761;49.490;10.908;2024-01-15T08:09:15;7.47;;;6.07;;
9445;SDS011;4761;49.490;10.908;2024-01-15T08:11:41;6.67;;;5.63;;
9445;SDS011;4761;49.490;10.908;2024-01-15T08:14:08;6.10;;;5.50;;
9445;SDS011;4761;49.490;10.908;2024-01-15T08:16:34;7.87;;;6.40;;
9445;SDS011;4761;49.490;10.908;2024-01-15T08:19:00;7.93;;;6.33;;
9445;SDS011;4761;49.490;10.908;2024-01-15T08:21:25;7.90;;;6.53;;
9445;SDS011;4761;49.490;10.908;2024-01-15T08:23:54;6.60;;;5.83;;
9445;SDS011;4761;49.490;10.908;2024-01-15T08:26:21;6.90;;;5.70;;
9445;SDS011;4761;49.490;10.908;2024-01-15T08:28:47;7.57;;;6.00;;
9445;SDS011;4761;49.490;10.908;2024-01-15T08:31:13;6.70;;;5.83;;
9445;SDS011;4761;49.490;10.908;2024-01-15T08:33:38;7.47;;;5.73;;
9445;SDS011;4761;49.490;10.908;2024-01-15T08:36:04;7.20;;;5.90;;
9445;SDS011;4761;49.490;10.908;2024-01-15T08:38:30;6.47;;;5.47;;
9445;SDS011;4761;49.490;10.908;2024-01-15T08:40:56;6.00;;;5.40;;
9445;SDS011;4761;49.490;10.908;2024-01-15T08:43:23;6.90;;;6.07;;
9445;SDS011;4761;49.490;10.908;2024-01-15T08:45:49;6.17;;;5.57;;
9445;SDS011;4761;49.490;10.908;2024-01-15T08:48:16;6.50;;;5.70;;
9445;SDS011;4761;49.490;10.908;2024-01-15T08:50:41;6.17;;;5.57;;
9445;SDS011;4761;49.490;10.908;2024-01-15T08:53:07;6.93;;;5.90;;
9445;SDS011;4761;49.490;10.908;2024-01-15T08:55:33;6.10;;;5.50;;
9445;SDS011;4761;49.490;10.908;2024-01-15T08:57:58;6.83;;;5.97;;
9445;SDS011;4761;49.490;10.908;2024-01-15T09:00:24;6.53;;;5.60;;
9445;SDS011;4761;49.490;10.908;2024-01-15T09:02:49;6.37;;;5.50;;
9445;SDS011;4761;49.490;10.908;2024-01-15T09:05:15;8.00;;;5.37;;
9445;SDS011;4761;49.490;10.908;2024-01-15T09:07:40;6.53;;;5.27;;
9445;SDS011;4761;49.490;10.908;2024-01-15T09:10:06;6.80;;;5.27;;
9445;SDS011;4761;49.490;10.908;2024-01-15T09:12:32;6.40;;;5.43;;
9445;SDS011;4761;49.490;10.908;2024-01-15T09:14:57;6.47;;;5.40;;
9445;SDS011;4761;49.490;10.908;2024-01-15T09:17:23;5.90;;;5.30;;
9445;SDS011;4761;49.490;10.908;2024-01-15T09:19:49;5.63;;;5.03;;
9445;SDS011;4761;49.490;10.908;2024-01-15T09:22:14;5.67;;;5.07;;
9445;SDS011;4761;49.490;10.908;2024-01-15T09:24:43;6.13;;;5.13;;
9445;SDS011;4761;49.490;10.908;2024-01-15T09:27:09;5.50;;;4.80;;
9445;SDS011;4761;49.490;10.908;2024-01-15T09:29:34;5.87;;;5.17;;
9445;SDS011;4761;49.490;10.908;2024-01-15T09:32:02;5.33;;;4.83;;
9445;SDS011;4761;49.490;10.908;2024-01-15T09:34:29;5.70;;;4.57;;
9445;SDS011;4761;49.490;10.908;2024-01-15T09:36:54;5.93;;;5.03;;
9445;SDS011;4761;49.490;10.908;2024-01-15T09:39:20;5.77;;;4.80;;
9445;SDS011;4761;49.490;10.908;2024-01-15T09:41:46;5.50;;;4.90;;
9445;SDS011;4761;49.490;10.908;2024-01-15T09:44:13;5.37;;;4.87;;
9445;SDS011;4761;49.490;10.908;2024-01-15T09:46:38;5.50;;;4.97;;
9445;SDS011;4761;49.490;10.908;2024-01-15T09:49:05;4.97;;;4.47;;
9445;SDS011;4761;49.490;10.908;2024-01-15T09:51:31;6.07;;;5.17;;
9445;SDS011;4761;49.490;10.908;2024-01-15T09:53:57;6.70;;;5.33;;
9445;SDS011;4761;49.490;10.908;2024-01-15T09:56:23;5.50;;;4.80;;
9445;SDS011;4761;49.490;10.908;2024-01-15T09:58:49;5.63;;;5.03;;
9445;SDS011;4761;49.490;10.908;2024-01-15T10:01:17;4.90;;;4.40;;
9445;SDS011;4761;49.490;10.908;2024-01-15T10:03:45;5.27;;;4.77;;
9445;SDS011;4761;49.490;10.908;2024-01-15T10:06:11;5.20;;;4.70;;
9445;SDS011;4761;49.490;10.908;2024-01-15T10:08:42;5.20;;;4.70;;
9445;SDS011;4761;49.490;10.908;2024-01-15T10:11:12;5.37;;;4.60;;
9445;SDS011;4761;49.490;10.908;2024-01-15T10:13:38;5.27;;;4.57;;
9445;SDS011;4761;49.490;10.908;2024-01-15T10:16:04;4.97;;;4.17;;
9445;SDS011;4761;49.490;10.908;2024-01-15T10:18:30;5.07;;;4.53;;
9445;SDS011;4761;49.490;10.908;2024-01-15T10:20:56;5.80;;;4.37;;
9445;SDS011;4761;49.490;10.908;2024-01-15T10:23:22;5.88;;;5.00;;
9445;SDS011;4761;49.490;10.908;2024-01-15T10:25:49;5.40;;;4.63;;
9445;SDS011;4761;49.490;10.908;2024-01-15T10:28:16;5.07;;;4.57;;
9445;SDS011;4761;49.490;10.908;2024-01-15T10:30:44;5.37;;;4.53;;
9445;SDS011;4761;49.490;10.908;2024-01-15T10:33:09;5.27;;;4.67;;
9445;SDS011;4761;49.490;10.908;2024-01-15T10:35:36;4.97;;;4.40;;
9445;SDS011;4761;49.490;10.908;2024-01-15T10:38:02;4.80;;;4.20;;
9445;SDS011;4761;49.490;10.908;2024-01-15T10:40:29;4.73;;;4.23;;
9445;SDS011;4761;49.490;10.908;2024-01-15T10:42:55;4.73;;;4.23;;
9445;SDS011;4761;49.490;10.908;2024-01-15T10:45:20;5.87;;;4.20;;
9445;SDS011;4761;49.490;10.908;2024-01-15T10:47:46;4.37;;;3.97;;
9445;SDS011;4761;49.490;10.908;2024-01-15T10:50:13;5.13;;;4.30;;
9445;SDS011;4761;49.490;10.908;2024-01-15T10:52:39;5.40;;;4.30;;
9445;SDS011;4761;49.490;10.908;2024-01-15T10:55:08;4.40;;;3.97;;
9445;SDS011;4761;49.490;10.908;2024-01-15T10:57:35;4.60;;;4.20;;
9445;SDS011;4761;49.490;10.908;2024-01-15T11:00:02;4.63;;;4.10;;
9445;SDS011;4761;49.490;10.908;2024-01-15T11:02:30;4.70;;;4.20;;
9445;SDS011;4761;49.490;10.908;2024-01-15T11:05:00;4.87;;;4.37;;
9445;SDS011;4761;49.490;10.908;2024-01-15T11:07:26;4.97;;;4.47;;
9445;SDS011;4761;49.490;10.908;2024-01-15T11:09:52;4.30;;;3.90;;
9445;SDS011;4761;49.490;10.908;2024-01-15T11:12:18;5.23;;;4.20;;
9445;SDS011;4761;49.490;10.908;2024-01-15T11:14:48;4.60;;;4.20;;
9445;SDS011;4761;49.490;10.908;2024-01-15T11:17:14;4.20;;;3.80;;
9445;SDS011;4761;49.490;10.908;2024-01-15T11:22:10;4.67;;;4.23;;
9445;SDS011;4761;49.490;10.908;2024-01-15T11:24:56;4.57;;;3.97;;
9445;SDS011;4761;49.490;10.908;2024-01-15T11:30:24;4.90;;;4.20;;
9445;SDS011;4761;49.490;10.908;2024-01-15T11:32:50;4.40;;;3.83;;
9445;SDS011;4761;49.490;10.908;2024-01-15T11:35:16;4.40;;;3.90;;
9445;SDS011;4761;49.490;10.908;2024-01-15T11:40:20;5.00;;;4.47;;
9445;SDS011;4761;49.490;10.908;2024-01-15T11:42:48;4.10;;;3.70;;
9445;SDS011;4761;49.490;10.908;2024-01-15T11:45:18;4.43;;;4.03;;
9445;SDS011;4761;49.490;10.908;2024-01-15T11:50:42;4.93;;;3.93;;
9445;SDS011;4761;49.490;10.908;2024-01-15T11:53:15;4.03;;;3.63;;
9445;SDS011;4761;49.490;10.908;2024-01-15T11:55:44;4.40;;;4.00;;
9445;SDS011;4761;49.490;10.908;2024-01-15T11:58:10;4.13;;;3.50;;
9445;SDS011;4761;49.490;10.908;2024-01-15T12:00:44;4.80;;;3.87;;
9445;SDS011;4761;49.490;10.908;2024-01-15T12:03:10;4.10;;;3.70;;
9445;SDS011;4761;49.490;10.908;2024-01-15T12:05:37;4.10;;;3.70;;
9445;SDS011;4761;49.490;10.908;2024-01-15T12:08:03;4.63;;;4.13;;
9445;SDS011;4761;49.490;10.908;2024-01-15T12:10:35;4.17;;;3.57;;
9445;SDS011;4761;49.490;10.908;2024-01-15T12:13:05;3.93;;;3.53;;
9445;SDS011;4761;49.490;10.908;2024-01-15T12:15:30;4.30;;;3.90;;
9445;SDS011;4761;49.490;10.908;2024-01-15T12:17:57;3.90;;;3.50;;
9445;SDS011;4761;49.490;10.908;2024-01-15T12:20:25;3.60;;;3.30;;
9445;SDS011;4761;49.490;10.908;2024-01-15T12:22:54;4.03;;;3.33;;
9445;SDS011;4761;49.490;10.908;2024-01-15T12:25:21;3.83;;;3.43;;
9445;SDS011;4761;49.490;10.908;2024-01-15T12:27:47;4.78;;;3.42;;
9445;SDS011;4761;49.490;10.908;2024-01-15T12:30:13;3.83;;;3.40;;
9445;SDS011;4761;49.490;10.908;2024-01-15T12:32:40;3.87;;;3.43;;
9445;SDS011;4761;49.490;10.908;2024-01-15T12:35:09;3.63;;;3.33;;
9445;SDS011;4761;49.490;10.908;2024-01-15T12:37:36;3.33;;;3.03;;
9445;SDS011;4761;49.490;10.908;2024-01-15T12:40:03;3.70;;;3.40;;
9445;SDS011;4761;49.490;10.908;2024-01-15T12:42:31;3.78;;;3.42;;
9445;SDS011;4761;49.490;10.908;2024-01-15T12:45:06;3.50;;;3.20;;
9445;SDS011;4761;49.490;10.908;2024-01-15T12:47:33;3.03;;;2.80;;
9445;SDS011;4761;49.490;10.908;2024-01-15T12:49:58;3.40;;;3.10;;
9445;SDS011;4761;49.490;10.908;2024-01-15T12:52:26;3.53;;;3.23;;
9445;SDS011;4761;49.490;10.908;2024-01-15T12:54:53;3.10;;;2.80;;
9445;SDS011;4761;49.490;10.908;2024-01-15T12:57:18;3.47;;;3.10;;
9445;SDS011;4761;49.490;10.908;2024-01-15T12:59:44;3.50;;;3.20;;
9445;SDS011;4761;49.490;10.908;2024-01-15T13:02:13;2.77;;;2.57;;
9445;SDS011;4761;49.490;10.908;2024-01-15T13:04:39;3.03;;;2.72;;
9445;SDS011;4761;49.490;10.908;2024-01-15T13:07:05;2.80;;;2.60;;
9445;SDS011;4761;49.490;10.908;2024-01-15T13:09:32;4.10;;;2.90;;
9445;SDS011;4761;49.490;10.908;2024-01-15T13:12:03;2.80;;;2.60;;
9445;SDS011;4761;49.490;10.908;2024-01-15T13:14:30;3.23;;;2.93;;
9445;SDS011;4761;49.490;10.908;2024-01-15T13:16:56;2.63;;;2.43;;
9445;SDS011;4761;49.490;10.908;2024-01-15T13:19:22;2.93;;;2.63;;
9445;SDS011;4761;49.490;10.908;2024-01-15T13:21:48;3.43;;;3.13;;
9445;SDS011;4761;49.490;10.908;2024-01-15T13:24:15;3.10;;;2.80;;
9445;SDS011;4761;49.490;10.908;2024-01-15T13:26:40;2.90;;;2.70;;
9445;SDS011;4761;49.490;10.908;2024-01-15T13:29:06;2.80;;;2.50;;
9445;SDS011;4761;49.490;10.908;2024-01-15T13:31:31;2.57;;;2.37;;
9445;SDS011;4761;49.490;10.908;2024-01-15T13:33:58;3.30;;;2.63;;
9445;SDS011;4761;49.490;10.908;2024-01-15T13:36:24;3.00;;;2.67;;
9445;SDS011;4761;49.490;10.908;2024-01-15T13:38:50;2.70;;;2.50;;
9445;SDS011;4761;49.490;10.908;2024-01-15T13:41:18;2.80;;;2.53;;
9445;SDS011;4761;49.490;10.908;2024-01-15T13:43:53;2.77;;;2.50;;
9445;SDS011;4761;49.490;10.908;2024-01-15T13:46:20;2.80;;;2.20;;
9445;SDS011;4761;49.490;10.908;2024-01-15T13:48:46;2.77;;;2.40;;
9445;SDS011;4761;49.490;10.908;2024-01-15T13:51:12;2.70;;;2.47;;
9445;SDS011;4761;49.490;10.908;2024-01-15T13:53:38;2.40;;;2.20;;
9445;SDS011;4761;49.490;10.908;2024-01-15T13:56:04;2.30;;;2.10;;
9445;SDS011;4761;49.490;10.908;2024-01-15T13:58:31;2.30;;;2.10;;
9445;SDS011;4761;49.490;10.908;2024-01-15T14:00:57;2.30;;;2.10;;
9445;SDS011;4761;49.490;10.908;2024-01-15T14:03:23;2.10;;;1.90;;
9445;SDS011;4761;49.490;10.908;2024-01-15T14:05:50;2.60;;;2.40;;
9445;SDS011;4761;49.490;10.908;2024-01-15T14:08:16;2.60;;;2.13;;
9445;SDS011;4761;49.490;10.908;2024-01-15T14:10:42;2.20;;;2.00;;
9445;SDS011;4761;49.490;10.908;2024-01-15T14:13:07;2.33;;;2.13;;
9445;SDS011;4761;49.490;10.908;2024-01-15T14:15:33;2.50;;;2.30;;
9445;SDS011;4761;49.490;10.908;2024-01-15T14:17:59;2.60;;;2.40;;
9445;SDS011;4761;49.490;10.908;2024-01-15T14:20:25;1.97;;;1.80;;
9445;SDS011;4761;49.490;10.908;2024-01-15T14:22:51;2.40;;;2.20;;
9445;SDS011;4761;49.490;10.908;2024-01-15T14:25:17;1.97;;;1.87;;
9445;SDS011;4761;49.490;10.908;2024-01-15T14:27:42;2.20;;;2.00;;
9445;SDS011;4761;49.490;10.908;2024-01-15T14:30:08;2.20;;;2.00;;
9445;SDS011;4761;49.490;10.908;2024-01-15T14:32:34;2.13;;;1.93;;
9445;SDS011;4761;49.490;10.908;2024-01-15T14:34:59;1.90;;;1.80;;
9445;SDS011;4761;49.490;10.908;2024-01-15T14:37:25;1.70;;;1.60;;
9445;SDS011;4761;49.490;10.908;2024-01-15T14:39:51;1.70;;;1.60;;
9445;SDS011;4761;49.490;10.908;2024-01-15T14:42:17;1.80;;;1.70;;
9445;SDS011;4761;49.490;10.908;2024-01-15T14:44:42;2.10;;;1.90;;
9445;SDS011;4761;49.490;10.908;2024-01-15T14:47:08;1.73;;;1.63;;
9445;SDS011;4761;49.490;10.908;2024-01-15T14:49:34;1.70;;;1.60;;
9445;SDS011;4761;49.490;10.908;2024-01-15T14:51:59;2.30;;;2.10;;
9445;SDS011;4761;49.490;10.908;2024-01-15T14:54:25;2.10;;;1.90;;
9445;SDS011;4761;49.490;10.908;2024-01-15T14:56:51;2.20;;;2.00;;
9445;SDS011;4761;49.490;10.908;2024-01-15T14:59:16;1.93;;;1.73;;